sensor_id;sensor_type;location;lat;lon;timestamp;temperature;humidity
71668;DHT22;59504;54.806;9.640;2023-08-06T00:02:11;15.50;70.60
71668;DHT22;59504;54.806;9.640;2023-08-06T00:04:32;15.50;70.70
71668;DHT22;59504;54.806;9.640;2023-08-06T00:06:32;15.50;71.20
71668;DHT22;59504;54.806;9.640;2023-08-06T00:09:02;15.50;71.30
71668;DHT22;59504;54.806;9.640;2023-08-06T00:11:22;15.50;71.40
71668;DHT22;59504;54.806;9.640;2023-08-06T00:13:43;15.60;71.40
71668;DHT22;59504;54.806;9.640;2023-08-06T00:16:13;15.60;71.50
71668;DHT22;59504;54.806;9.640;2023-08-06T00:18:34;15.60;71.40
71668;DHT22;59504;54.806;9.640;2023-08-06T00:21:02;15.70;71.60
71668;DHT22;59504;54.806;9.640;2023-08-06T00:23:32;15.70;71.60
71668;DHT22;59504;54.806;9.640;2023-08-06T00:25:53;15.70;71.50
71668;DHT22;59504;54.806;9.640;2023-08-06T00:28:16;15.70;72.10
71668;DHT22;59504;54.806;9.640;2023-08-06T00:30:37;15.60;72.00
71668;DHT22;59504;54.806;9.640;2023-08-06T00:33:06;15.70;71.90
71668;DHT22;59504;54.806;9.640;2023-08-06T00:35:33;15.80;71.90
71668;DHT22;59504;54.806;9.640;2023-08-06T00:38:00;15.80;72.10
71668;DHT22;59504;54.806;9.640;2023-08-06T00:40:20;15.70;72.30
71668;DHT22;59504;54.806;9.640;2023-08-06T00:42:50;15.80;72.50
71668;DHT22;59504;54.806;9.640;2023-08-06T00:45:11;15.90;72.50
71668;DHT22;59504;54.806;9.640;2023-08-06T00:47:31;15.90;72.70
71668;DHT22;59504;54.806;9.640;2023-08-06T00:49:54;15.90;72.70
71668;DHT22;59504;54.806;9.640;2023-08-06T00:52:15;15.90;72.70
71668;DHT22;59504;54.806;9.640;2023-08-06T00:54:45;15.90;73.10
71668;DHT22;59504;54.806;9.640;2023-08-06T00:57:10;16.00;73.00
71668;DHT22;59504;54.806;9.640;2023-08-06T00:59:36;15.90;72.80
71668;DHT22;59504;54.806;9.640;2023-08-06T01:01:59;15.90;72.70
71668;DHT22;59504;54.806;9.640;2023-08-06T01:04:00;15.90;72.70
71668;DHT22;59504;54.806;9.640;2023-08-06T01:06:04;16.00;72.90
71668;DHT22;59504;54.806;9.640;2023-08-06T01:13:56;16.00;73.80
71668;DHT22;59504;54.806;9.640;2023-08-06T01:16:20;16.00;73.50
71668;DHT22;59504;54.806;9.640;2023-08-06T01:18:41;16.00;73.30
71668;DHT22;59504;54.806;9.640;2023-08-06T01:21:03;16.00;73.20
71668;DHT22;59504;54.806;9.640;2023-08-06T01:23:30;16.00;73.40
71668;DHT22;59504;54.806;9.640;2023-08-06T01:28:23;16.10;73.30
71668;DHT22;59504;54.806;9.640;2023-08-06T01:30:29;16.10;74.50
71668;DHT22;59504;54.806;9.640;2023-08-06T01:32:37;16.00;75.70
71668;DHT22;59504;54.806;9.640;2023-08-06T01:34:40;16.00;76.00
71668;DHT22;59504;54.806;9.640;2023-08-06T01:36:42;16.00;76.10
71668;DHT22;59504;54.806;9.640;2023-08-06T01:38:43;16.00;76.30
71668;DHT22;59504;54.806;9.640;2023-08-06T01:40:44;16.10;76.50
71668;DHT22;59504;54.806;9.640;2023-08-06T01:43:05;16.00;76.60
71668;DHT22;59504;54.806;9.640;2023-08-06T01:45:25;16.10;76.60
71668;DHT22;59504;54.806;9.640;2023-08-06T01:47:46;16.10;76.80
71668;DHT22;59504;54.806;9.640;2023-08-06T01:50:13;16.10;76.80
71668;DHT22;59504;54.806;9.640;2023-08-06T01:52:37;16.00;76.20
71668;DHT22;59504;54.806;9.640;2023-08-06T01:55:06;16.10;75.80
71668;DHT22;59504;54.806;9.640;2023-08-06T01:57:28;16.10;75.60
71668;DHT22;59504;54.806;9.640;2023-08-06T01:59:49;16.20;75.60
71668;DHT22;59504;54.806;9.640;2023-08-06T02:02:09;16.20;75.50
71668;DHT22;59504;54.806;9.640;2023-08-06T02:04:30;16.20;75.40
71668;DHT22;59504;54.806;9.640;2023-08-06T02:06:53;16.20;75.40
71668;DHT22;59504;54.806;9.640;2023-08-06T02:08:54;16.20;75.30
71668;DHT22;59504;54.806;9.640;2023-08-06T02:10:55;16.20;75.20
71668;DHT22;59504;54.806;9.640;2023-08-06T02:12:55;16.20;75.30
71668;DHT22;59504;54.806;9.640;2023-08-06T02:15:16;16.30;75.30
71668;DHT22;59504;54.806;9.640;2023-08-06T02:17:36;16.30;75.20
71668;DHT22;59504;54.806;9.640;2023-08-06T02:19:58;16.30;75.50
71668;DHT22;59504;54.806;9.640;2023-08-06T02:22:19;16.30;75.30
71668;DHT22;59504;54.806;9.640;2023-08-06T02:24:39;16.30;75.10
71668;DHT22;59504;54.806;9.640;2023-08-06T02:27:00;16.30;75.20
71668;DHT22;59504;54.806;9.640;2023-08-06T02:29:20;16.30;74.90
71668;DHT22;59504;54.806;9.640;2023-08-06T02:31:41;16.30;75.30
71668;DHT22;59504;54.806;9.640;2023-08-06T02:34:02;16.30;75.00
71668;DHT22;59504;54.806;9.640;2023-08-06T02:36:22;16.30;74.90
71668;DHT22;59504;54.806;9.640;2023-08-06T02:38:23;16.30;74.90
71668;DHT22;59504;54.806;9.640;2023-08-06T02:40:24;16.30;74.80
71668;DHT22;59504;54.806;9.640;2023-08-06T02:42:24;16.30;74.80
71668;DHT22;59504;54.806;9.640;2023-08-06T02:44:29;16.30;74.70
71668;DHT22;59504;54.806;9.640;2023-08-06T02:46:50;16.30;74.60
71668;DHT22;59504;54.806;9.640;2023-08-06T02:49:10;16.30;74.50
71668;DHT22;59504;54.806;9.640;2023-08-06T02:51:31;16.20;75.00
71668;DHT22;59504;54.806;9.640;2023-08-06T02:53:55;16.30;75.30
71668;DHT22;59504;54.806;9.640;2023-08-06T02:56:15;16.20;75.40
71668;DHT22;59504;54.806;9.640;2023-08-06T02:58:36;16.20;75.50
71668;DHT22;59504;54.806;9.640;2023-08-06T03:01:02;16.20;75.70
71668;DHT22;59504;54.806;9.640;2023-08-06T03:03:03;16.10;75.80
71668;DHT22;59504;54.806;9.640;2023-08-06T03:05:23;16.10;76.10
71668;DHT22;59504;54.806;9.640;2023-08-06T03:07:44;16.10;76.20
71668;DHT22;59504;54.806;9.640;2023-08-06T03:10:04;16.00;76.50
71668;DHT22;59504;54.806;9.640;2023-08-06T03:12:25;16.00;76.50
71668;DHT22;59504;54.806;9.640;2023-08-06T03:14:46;16.10;76.70
71668;DHT22;59504;54.806;9.640;2023-08-06T03:17:06;16.00;76.20
71668;DHT22;59504;54.806;9.640;2023-08-06T03:19:24;16.00;76.20
71668;DHT22;59504;54.806;9.640;2023-08-06T03:21:24;16.00;76.00
71668;DHT22;59504;54.806;9.640;2023-08-06T03:23:25;16.00;75.90
71668;DHT22;59504;54.806;9.640;2023-08-06T03:25:25;16.00;75.80
71668;DHT22;59504;54.806;9.640;2023-08-06T03:27:28;16.10;75.80
71668;DHT22;59504;54.806;9.640;2023-08-06T03:29:34;16.10;75.80
71668;DHT22;59504;54.806;9.640;2023-08-06T03:31:35;16.00;75.70
71668;DHT22;59504;54.806;9.640;2023-08-06T03:33:55;16.00;75.70
71668;DHT22;59504;54.806;9.640;2023-08-06T03:36:16;16.10;76.60
71668;DHT22;59504;54.806;9.640;2023-08-06T03:38:16;16.00;76.20
71668;DHT22;59504;54.806;9.640;2023-08-06T03:40:37;16.00;76.60
71668;DHT22;59504;54.806;9.640;2023-08-06T03:42:57;16.00;76.60
71668;DHT22;59504;54.806;9.640;2023-08-06T03:45:18;16.00;76.40
71668;DHT22;59504;54.806;9.640;2023-08-06T03:47:38;16.10;76.30
71668;DHT22;59504;54.806;9.640;2023-08-06T03:49:59;16.00;76.10
71668;DHT22;59504;54.806;9.640;2023-08-06T03:52:19;16.00;76.00
71668;DHT22;59504;54.806;9.640;2023-08-06T03:54:40;16.00;76.40
71668;DHT22;59504;54.806;9.640;2023-08-06T03:57:01;16.00;76.50
71668;DHT22;59504;54.806;9.640;2023-08-06T03:59:21;16.00;76.90
71668;DHT22;59504;54.806;9.640;2023-08-06T04:01:22;16.00;77.20
71668;DHT22;59504;54.806;9.640;2023-08-06T04:03:23;15.90;77.30
71668;DHT22;59504;54.806;9.640;2023-08-06T04:05:23;15.90;77.80
71668;DHT22;59504;54.806;9.640;2023-08-06T04:07:34;15.90;77.80
71668;DHT22;59504;54.806;9.640;2023-08-06T04:09:56;16.00;78.30
71668;DHT22;59504;54.806;9.640;2023-08-06T04:12:26;15.80;78.10
71668;DHT22;59504;54.806;9.640;2023-08-06T04:14:47;15.80;78.30
71668;DHT22;59504;54.806;9.640;2023-08-06T04:17:07;15.80;78.80
71668;DHT22;59504;54.806;9.640;2023-08-06T04:19:28;15.70;79.70
71668;DHT22;59504;54.806;9.640;2023-08-06T04:21:49;15.70;79.20
71668;DHT22;59504;54.806;9.640;2023-08-06T04:23:49;15.70;79.20
71668;DHT22;59504;54.806;9.640;2023-08-06T04:25:51;15.70;79.10
71668;DHT22;59504;54.806;9.640;2023-08-06T04:27:54;15.70;79.10
71668;DHT22;59504;54.806;9.640;2023-08-06T04:30:04;15.70;79.10
71668;DHT22;59504;54.806;9.640;2023-08-06T04:32:25;15.70;78.90
71668;DHT22;59504;54.806;9.640;2023-08-06T04:34:46;15.80;78.60
71668;DHT22;59504;54.806;9.640;2023-08-06T04:37:08;15.70;78.10
71668;DHT22;59504;54.806;9.640;2023-08-06T04:39:29;15.70;78.00
71668;DHT22;59504;54.806;9.640;2023-08-06T04:41:49;15.70;77.50
71668;DHT22;59504;54.806;9.640;2023-08-06T04:44:10;15.70;77.30
71668;DHT22;59504;54.806;9.640;2023-08-06T04:46:31;15.70;77.30
71668;DHT22;59504;54.806;9.640;2023-08-06T04:48:51;15.80;77.10
71668;DHT22;59504;54.806;9.640;2023-08-06T04:51:12;15.90;76.90
71668;DHT22;59504;54.806;9.640;2023-08-06T04:53:12;15.80;76.70
71668;DHT22;59504;54.806;9.640;2023-08-06T04:55:19;15.80;76.70
71668;DHT22;59504;54.806;9.640;2023-08-06T04:57:20;15.80;76.40
71668;DHT22;59504;54.806;9.640;2023-08-06T04:59:21;15.90;76.30
71668;DHT22;59504;54.806;9.640;2023-08-06T05:01:24;15.90;75.90
71668;DHT22;59504;54.806;9.640;2023-08-06T05:03:27;15.90;75.70
71668;DHT22;59504;54.806;9.640;2023-08-06T05:05:47;15.90;75.70
71668;DHT22;59504;54.806;9.640;2023-08-06T05:08:13;15.90;75.40
71668;DHT22;59504;54.806;9.640;2023-08-06T05:10:37;16.00;75.10
71668;DHT22;59504;54.806;9.640;2023-08-06T05:12:57;16.00;74.70
71668;DHT22;59504;54.806;9.640;2023-08-06T05:15:18;15.90;74.70
71668;DHT22;59504;54.806;9.640;2023-08-06T05:17:42;16.00;74.00
71668;DHT22;59504;54.806;9.640;2023-08-06T05:19:42;16.00;74.20
71668;DHT22;59504;54.806;9.640;2023-08-06T05:21:43;16.00;73.80
71668;DHT22;59504;54.806;9.640;2023-08-06T05:23:44;16.00;73.90
71668;DHT22;59504;54.806;9.640;2023-08-06T05:25:44;16.00;73.90
71668;DHT22;59504;54.806;9.640;2023-08-06T05:27:45;16.00;74.00
71668;DHT22;59504;54.806;9.640;2023-08-06T05:29:48;16.00;74.40
71668;DHT22;59504;54.806;9.640;2023-08-06T05:31:49;16.10;74.90
71668;DHT22;59504;54.806;9.640;2023-08-06T05:33:50;16.00;75.30
71668;DHT22;59504;54.806;9.640;2023-08-06T05:36:10;16.10;75.10
71668;DHT22;59504;54.806;9.640;2023-08-06T05:38:31;16.10;75.90
71668;DHT22;59504;54.806;9.640;2023-08-06T05:40:55;16.10;76.10
71668;DHT22;59504;54.806;9.640;2023-08-06T05:43:16;16.20;76.30
71668;DHT22;59504;54.806;9.640;2023-08-06T05:45:37;16.10;76.70
71668;DHT22;59504;54.806;9.640;2023-08-06T05:47:37;16.10;76.60
71668;DHT22;59504;54.806;9.640;2023-08-06T05:49:38;16.20;77.00
71668;DHT22;59504;54.806;9.640;2023-08-06T05:51:39;16.20;77.10
71668;DHT22;59504;54.806;9.640;2023-08-06T05:53:41;16.10;77.20
71668;DHT22;59504;54.806;9.640;2023-08-06T05:56:07;16.30;77.20
71668;DHT22;59504;54.806;9.640;2023-08-06T05:58:31;16.10;77.10
71668;DHT22;59504;54.806;9.640;2023-08-06T06:00:31;16.10;77.00
71668;DHT22;59504;54.806;9.640;2023-08-06T06:02:55;16.10;76.90
71668;DHT22;59504;54.806;9.640;2023-08-06T06:05:18;16.20;77.00
71668;DHT22;59504;54.806;9.640;2023-08-06T06:07:28;16.10;77.00
71668;DHT22;59504;54.806;9.640;2023-08-06T06:09:50;16.20;77.10
71668;DHT22;59504;54.806;9.640;2023-08-06T06:12:17;16.20;77.10
71668;DHT22;59504;54.806;9.640;2023-08-06T06:14:38;16.20;77.10
71668;DHT22;59504;54.806;9.640;2023-08-06T06:16:58;16.20;77.10
71668;DHT22;59504;54.806;9.640;2023-08-06T06:18:59;16.20;76.90
71668;DHT22;59504;54.806;9.640;2023-08-06T06:21:00;16.10;76.80
71668;DHT22;59504;54.806;9.640;2023-08-06T06:23:01;16.10;76.60
71668;DHT22;59504;54.806;9.640;2023-08-06T06:25:01;16.10;76.60
71668;DHT22;59504;54.806;9.640;2023-08-06T06:27:03;16.10;76.60
71668;DHT22;59504;54.806;9.640;2023-08-06T06:29:04;16.10;76.60
71668;DHT22;59504;54.806;9.640;2023-08-06T06:31:10;16.10;76.60
71668;DHT22;59504;54.806;9.640;2023-08-06T06:33:14;16.10;76.50
71668;DHT22;59504;54.806;9.640;2023-08-06T06:35:23;16.20;76.50
71668;DHT22;59504;54.806;9.640;2023-08-06T06:38:05;16.20;76.00
71668;DHT22;59504;54.806;9.640;2023-08-06T06:40:25;16.10;75.60
71668;DHT22;59504;54.806;9.640;2023-08-06T06:42:46;16.20;75.80
71668;DHT22;59504;54.806;9.640;2023-08-06T06:44:47;16.10;75.70
71668;DHT22;59504;54.806;9.640;2023-08-06T06:47:15;16.20;75.70
71668;DHT22;59504;54.806;9.640;2023-08-06T06:49:38;16.20;75.80
71668;DHT22;59504;54.806;9.640;2023-08-06T06:52:11;16.10;75.70
71668;DHT22;59504;54.806;9.640;2023-08-06T06:54:32;16.20;75.60
71668;DHT22;59504;54.806;9.640;2023-08-06T06:56:52;16.20;75.40
71668;DHT22;59504;54.806;9.640;2023-08-06T06:59:12;16.30;75.30
71668;DHT22;59504;54.806;9.640;2023-08-06T07:01:13;16.20;75.10
71668;DHT22;59504;54.806;9.640;2023-08-06T07:03:16;16.30;75.20
71668;DHT22;59504;54.806;9.640;2023-08-06T07:05:17;16.30;74.90
71668;DHT22;59504;54.806;9.640;2023-08-06T07:07:18;16.30;75.00
71668;DHT22;59504;54.806;9.640;2023-08-06T07:09:38;16.30;74.80
71668;DHT22;59504;54.806;9.640;2023-08-06T07:11:59;16.40;74.10
71668;DHT22;59504;54.806;9.640;2023-08-06T07:14:19;16.30;74.10
71668;DHT22;59504;54.806;9.640;2023-08-06T07:16:43;16.30;73.60
71668;DHT22;59504;54.806;9.640;2023-08-06T07:19:06;16.30;73.60
71668;DHT22;59504;54.806;9.640;2023-08-06T07:21:27;16.30;73.30
71668;DHT22;59504;54.806;9.640;2023-08-06T07:23:48;16.40;73.40
71668;DHT22;59504;54.806;9.640;2023-08-06T07:25:50;16.40;73.30
71668;DHT22;59504;54.806;9.640;2023-08-06T07:27:50;16.40;73.20
71668;DHT22;59504;54.806;9.640;2023-08-06T07:29:52;16.40;72.70
71668;DHT22;59504;54.806;9.640;2023-08-06T07:32:33;16.30;72.50
71668;DHT22;59504;54.806;9.640;2023-08-06T07:51:56;16.50;71.50
71668;DHT22;59504;54.806;9.640;2023-08-06T07:54:16;16.50;70.60
71668;DHT22;59504;54.806;9.640;2023-08-06T07:56:17;16.50;70.30
71668;DHT22;59504;54.806;9.640;2023-08-06T07:58:18;16.50;70.60
71668;DHT22;59504;54.806;9.640;2023-08-06T08:00:19;16.50;70.70
71668;DHT22;59504;54.806;9.640;2023-08-06T08:02:40;16.50;70.80
71668;DHT22;59504;54.806;9.640;2023-08-06T08:05:00;16.60;71.00
71668;DHT22;59504;54.806;9.640;2023-08-06T08:07:21;16.60;70.80
71668;DHT22;59504;54.806;9.640;2023-08-06T08:09:41;16.60;70.20
71668;DHT22;59504;54.806;9.640;2023-08-06T08:11:47;16.50;69.50
71668;DHT22;59504;54.806;9.640;2023-08-06T08:14:08;16.60;69.50
71668;DHT22;59504;54.806;9.640;2023-08-06T08:16:28;16.50;69.40
71668;DHT22;59504;54.806;9.640;2023-08-06T08:18:49;16.60;70.00
71668;DHT22;59504;54.806;9.640;2023-08-06T08:21:09;16.60;70.20
71668;DHT22;59504;54.806;9.640;2023-08-06T08:23:30;16.70;69.90
71668;DHT22;59504;54.806;9.640;2023-08-06T08:25:51;16.70;69.70
71668;DHT22;59504;54.806;9.640;2023-08-06T08:28:12;16.70;70.20
71668;DHT22;59504;54.806;9.640;2023-08-06T08:30:13;16.80;70.70
71668;DHT22;59504;54.806;9.640;2023-08-06T08:32:13;16.80;69.90
71668;DHT22;59504;54.806;9.640;2023-08-06T08:34:14;16.90;70.20
71668;DHT22;59504;54.806;9.640;2023-08-06T08:36:15;17.00;70.50
71668;DHT22;59504;54.806;9.640;2023-08-06T08:38:16;17.00;70.60
71668;DHT22;59504;54.806;9.640;2023-08-06T08:40:17;17.10;70.10
71668;DHT22;59504;54.806;9.640;2023-08-06T08:42:17;17.10;69.30
71668;DHT22;59504;54.806;9.640;2023-08-06T08:44:38;17.10;69.40
71668;DHT22;59504;54.806;9.640;2023-08-06T08:47:00;17.20;68.30
71668;DHT22;59504;54.806;9.640;2023-08-06T08:49:21;17.30;68.70
71668;DHT22;59504;54.806;9.640;2023-08-06T08:51:41;17.30;68.10
71668;DHT22;59504;54.806;9.640;2023-08-06T08:54:04;17.40;68.30
71668;DHT22;59504;54.806;9.640;2023-08-06T08:56:24;17.30;67.50
71668;DHT22;59504;54.806;9.640;2023-08-06T08:58:45;17.40;67.30
71668;DHT22;59504;54.806;9.640;2023-08-06T09:01:06;17.40;67.70
71668;DHT22;59504;54.806;9.640;2023-08-06T09:03:27;17.40;68.20
71668;DHT22;59504;54.806;9.640;2023-08-06T09:05:49;17.50;68.00
71668;DHT22;59504;54.806;9.640;2023-08-06T09:08:05;17.50;68.30
71668;DHT22;59504;54.806;9.640;2023-08-06T09:10:05;17.50;67.50
71668;DHT22;59504;54.806;9.640;2023-08-06T09:12:11;17.50;67.70
71668;DHT22;59504;54.806;9.640;2023-08-06T09:14:12;17.50;67.70
71668;DHT22;59504;54.806;9.640;2023-08-06T09:16:22;17.60;67.80
71668;DHT22;59504;54.806;9.640;2023-08-06T09:18:42;17.70;68.00
71668;DHT22;59504;54.806;9.640;2023-08-06T09:21:04;17.70;68.00
71668;DHT22;59504;54.806;9.640;2023-08-06T09:23:28;17.80;67.90
71668;DHT22;59504;54.806;9.640;2023-08-06T09:25:49;17.80;67.50
71668;DHT22;59504;54.806;9.640;2023-08-06T09:28:10;17.80;66.60
71668;DHT22;59504;54.806;9.640;2023-08-06T09:30:31;17.90;67.10
71668;DHT22;59504;54.806;9.640;2023-08-06T09:32:52;18.00;67.00
71668;DHT22;59504;54.806;9.640;2023-08-06T09:34:56;17.90;66.40
71668;DHT22;59504;54.806;9.640;2023-08-06T09:36:57;17.90;66.70
71668;DHT22;59504;54.806;9.640;2023-08-06T09:38:57;17.90;66.60
71668;DHT22;59504;54.806;9.640;2023-08-06T09:41:03;18.00;66.70
71668;DHT22;59504;54.806;9.640;2023-08-06T09:43:23;18.00;66.70
71668;DHT22;59504;54.806;9.640;2023-08-06T09:45:44;18.00;66.50
71668;DHT22;59504;54.806;9.640;2023-08-06T09:48:08;18.00;65.10
71668;DHT22;59504;54.806;9.640;2023-08-06T09:50:32;18.00;65.50
71668;DHT22;59504;54.806;9.640;2023-08-06T09:52:43;18.10;65.40
71668;DHT22;59504;54.806;9.640;2023-08-06T09:55:04;18.10;65.00
71668;DHT22;59504;54.806;9.640;2023-08-06T09:57:24;18.10;64.90
71668;DHT22;59504;54.806;9.640;2023-08-06T09:59:45;18.20;64.50
71668;DHT22;59504;54.806;9.640;2023-08-06T10:02:09;18.20;63.30
71668;DHT22;59504;54.806;9.640;2023-08-06T10:04:26;18.30;63.80
71668;DHT22;59504;54.806;9.640;2023-08-06T10:06:49;18.30;64.10
71668;DHT22;59504;54.806;9.640;2023-08-06T10:09:10;18.20;63.70
71668;DHT22;59504;54.806;9.640;2023-08-06T10:11:30;18.30;63.20
71668;DHT22;59504;54.806;9.640;2023-08-06T10:13:53;18.40;62.90
71668;DHT22;59504;54.806;9.640;2023-08-06T10:16:15;18.40;62.40
71668;DHT22;59504;54.806;9.640;2023-08-06T10:18:37;18.40;62.70
71668;DHT22;59504;54.806;9.640;2023-08-06T10:20:59;18.40;62.30
71668;DHT22;59504;54.806;9.640;2023-08-06T10:23:01;18.40;62.40
71668;DHT22;59504;54.806;9.640;2023-08-06T10:25:02;18.40;62.50
71668;DHT22;59504;54.806;9.640;2023-08-06T10:27:06;18.40;62.30
71668;DHT22;59504;54.806;9.640;2023-08-06T10:33:46;18.40;62.50
71668;DHT22;59504;54.806;9.640;2023-08-06T10:36:02;18.40;62.60
71668;DHT22;59504;54.806;9.640;2023-08-06T10:38:17;18.50;63.10
71668;DHT22;59504;54.806;9.640;2023-08-06T10:40:42;18.50;63.50
71668;DHT22;59504;54.806;9.640;2023-08-06T10:43:08;18.50;63.20
71668;DHT22;59504;54.806;9.640;2023-08-06T10:45:49;18.50;62.20
71668;DHT22;59504;54.806;9.640;2023-08-06T10:48:10;18.50;62.10
71668;DHT22;59504;54.806;9.640;2023-08-06T10:50:30;18.50;62.50
71668;DHT22;59504;54.806;9.640;2023-08-06T10:52:51;18.50;62.50
71668;DHT22;59504;54.806;9.640;2023-08-06T10:55:13;18.50;62.70
71668;DHT22;59504;54.806;9.640;2023-08-06T10:57:34;18.50;62.70
71668;DHT22;59504;54.806;9.640;2023-08-06T10:59:55;18.50;63.00
71668;DHT22;59504;54.806;9.640;2023-08-06T11:02:15;18.60;63.60
71668;DHT22;59504;54.806;9.640;2023-08-06T11:04:36;18.50;62.70
71668;DHT22;59504;54.806;9.640;2023-08-06T11:06:56;18.60;63.40
71668;DHT22;59504;54.806;9.640;2023-08-06T11:08:57;18.60;62.60
71668;DHT22;59504;54.806;9.640;2023-08-06T11:11:07;18.60;62.70
71668;DHT22;59504;54.806;9.640;2023-08-06T11:13:28;18.60;62.20
71668;DHT22;59504;54.806;9.640;2023-08-06T11:15:49;18.70;62.90
71668;DHT22;59504;54.806;9.640;2023-08-06T11:18:12;18.60;62.50
71668;DHT22;59504;54.806;9.640;2023-08-06T11:20:33;18.70;62.10
71668;DHT22;59504;54.806;9.640;2023-08-06T11:22:53;18.70;62.20
71668;DHT22;59504;54.806;9.640;2023-08-06T11:25:14;18.70;62.30
71668;DHT22;59504;54.806;9.640;2023-08-06T11:27:15;18.70;62.00
71668;DHT22;59504;54.806;9.640;2023-08-06T11:29:16;18.80;62.00
71668;DHT22;59504;54.806;9.640;2023-08-06T11:31:20;18.90;62.50
71668;DHT22;59504;54.806;9.640;2023-08-06T11:33:41;18.80;62.20
71668;DHT22;59504;54.806;9.640;2023-08-06T11:36:01;18.90;62.60
71668;DHT22;59504;54.806;9.640;2023-08-06T11:38:24;19.00;62.80
71668;DHT22;59504;54.806;9.640;2023-08-06T11:40:45;19.10;63.30
71668;DHT22;59504;54.806;9.640;2023-08-06T11:43:06;19.10;61.20
71668;DHT22;59504;54.806;9.640;2023-08-06T11:45:26;19.10;60.90
71668;DHT22;59504;54.806;9.640;2023-08-06T11:47:49;19.20;60.80
71668;DHT22;59504;54.806;9.640;2023-08-06T11:50:10;19.20;60.80
71668;DHT22;59504;54.806;9.640;2023-08-06T11:52:41;19.30;61.10
71668;DHT22;59504;54.806;9.640;2023-08-06T11:54:42;19.30;61.60
71668;DHT22;59504;54.806;9.640;2023-08-06T11:56:43;19.30;61.10
71668;DHT22;59504;54.806;9.640;2023-08-06T11:59:06;19.40;60.80
71668;DHT22;59504;54.806;9.640;2023-08-06T12:01:26;19.40;59.90
71668;DHT22;59504;54.806;9.640;2023-08-06T12:03:48;19.40;59.80
71668;DHT22;59504;54.806;9.640;2023-08-06T12:06:08;19.50;60.50
71668;DHT22;59504;54.806;9.640;2023-08-06T12:08:29;19.50;60.80
71668;DHT22;59504;54.806;9.640;2023-08-06T12:10:49;19.50;60.20
71668;DHT22;59504;54.806;9.640;2023-08-06T12:13:11;19.50;58.90
71668;DHT22;59504;54.806;9.640;2023-08-06T12:15:33;19.50;58.40
71668;DHT22;59504;54.806;9.640;2023-08-06T12:17:33;19.50;58.80
71668;DHT22;59504;54.806;9.640;2023-08-06T12:19:54;19.60;59.20
71668;DHT22;59504;54.806;9.640;2023-08-06T12:22:15;19.60;59.40
71668;DHT22;59504;54.806;9.640;2023-08-06T12:24:35;19.60;59.20
71668;DHT22;59504;54.806;9.640;2023-08-06T12:26:56;19.70;58.80
71668;DHT22;59504;54.806;9.640;2023-08-06T12:29:02;19.70;58.60
71668;DHT22;59504;54.806;9.640;2023-08-06T12:31:23;19.70;57.60
71668;DHT22;59504;54.806;9.640;2023-08-06T12:33:29;19.70;57.80
71668;DHT22;59504;54.806;9.640;2023-08-06T12:35:32;19.70;56.90
71668;DHT22;59504;54.806;9.640;2023-08-06T12:40:02;19.70;57.00
71668;DHT22;59504;54.806;9.640;2023-08-06T12:42:23;19.80;57.30
71668;DHT22;59504;54.806;9.640;2023-08-06T12:44:44;19.80;56.40
71668;DHT22;59504;54.806;9.640;2023-08-06T12:47:05;19.80;56.80
71668;DHT22;59504;54.806;9.640;2023-08-06T12:49:25;19.80;56.30
71668;DHT22;59504;54.806;9.640;2023-08-06T12:51:48;19.80;56.60
71668;DHT22;59504;54.806;9.640;2023-08-06T12:53:48;19.90;57.00
71668;DHT22;59504;54.806;9.640;2023-08-06T12:55:49;19.90;56.90
71668;DHT22;59504;54.806;9.640;2023-08-06T12:57:50;19.90;57.50
71668;DHT22;59504;54.806;9.640;2023-08-06T12:59:50;20.00;57.60
71668;DHT22;59504;54.806;9.640;2023-08-06T13:01:51;20.00;57.60
71668;DHT22;59504;54.806;9.640;2023-08-06T13:04:12;20.10;57.40
71668;DHT22;59504;54.806;9.640;2023-08-06T13:06:32;20.10;57.70
71668;DHT22;59504;54.806;9.640;2023-08-06T13:08:59;20.20;57.50
71668;DHT22;59504;54.806;9.640;2023-08-06T13:11:23;20.30;55.90
71668;DHT22;59504;54.806;9.640;2023-08-06T13:13:44;20.30;56.30
71668;DHT22;59504;54.806;9.640;2023-08-06T13:16:04;20.30;56.00
71668;DHT22;59504;54.806;9.640;2023-08-06T13:18:25;20.30;55.10
71668;DHT22;59504;54.806;9.640;2023-08-06T13:20:47;20.30;54.60
71668;DHT22;59504;54.806;9.640;2023-08-06T13:23:09;20.30;54.50
71668;DHT22;59504;54.806;9.640;2023-08-06T13:25:30;20.40;54.90
71668;DHT22;59504;54.806;9.640;2023-08-06T13:27:57;20.30;54.70
71668;DHT22;59504;54.806;9.640;2023-08-06T13:29:58;20.40;55.00
71668;DHT22;59504;54.806;9.640;2023-08-06T13:31:58;20.30;54.80
71668;DHT22;59504;54.806;9.640;2023-08-06T13:33:59;20.30;54.20
71668;DHT22;59504;54.806;9.640;2023-08-06T13:35:59;20.40;54.70
71668;DHT22;59504;54.806;9.640;2023-08-06T13:38:00;20.40;54.50
71668;DHT22;59504;54.806;9.640;2023-08-06T13:40:03;20.40;54.30
71668;DHT22;59504;54.806;9.640;2023-08-06T13:42:24;20.40;54.60
71668;DHT22;59504;54.806;9.640;2023-08-06T13:44:44;20.40;53.50
71668;DHT22;59504;54.806;9.640;2023-08-06T13:46:45;20.50;53.90
71668;DHT22;59504;54.806;9.640;2023-08-06T13:49:05;20.50;53.70
71668;DHT22;59504;54.806;9.640;2023-08-06T13:51:26;20.50;53.70
71668;DHT22;59504;54.806;9.640;2023-08-06T13:53:46;20.50;53.90
71668;DHT22;59504;54.806;9.640;2023-08-06T13:56:07;20.50;54.50
71668;DHT22;59504;54.806;9.640;2023-08-06T13:58:30;20.50;52.90
71668;DHT22;59504;54.806;9.640;2023-08-06T14:00:51;20.50;51.90
71668;DHT22;59504;54.806;9.640;2023-08-06T14:03:13;20.50;52.80
71668;DHT22;59504;54.806;9.640;2023-08-06T14:05:13;20.60;51.70
71668;DHT22;59504;54.806;9.640;2023-08-06T14:07:14;20.60;51.80
71668;DHT22;59504;54.806;9.640;2023-08-06T14:09:15;20.60;51.60
71668;DHT22;59504;54.806;9.640;2023-08-06T14:11:38;20.50;51.90
71668;DHT22;59504;54.806;9.640;2023-08-06T14:13:59;20.50;51.90
71668;DHT22;59504;54.806;9.640;2023-08-06T14:16:20;20.50;52.80
71668;DHT22;59504;54.806;9.640;2023-08-06T14:18:41;20.50;52.30
71668;DHT22;59504;54.806;9.640;2023-08-06T14:21:01;20.50;52.70
71668;DHT22;59504;54.806;9.640;2023-08-06T14:23:03;20.50;53.40
71668;DHT22;59504;54.806;9.640;2023-08-06T14:25:04;20.50;53.50
71668;DHT22;59504;54.806;9.640;2023-08-06T14:27:24;20.50;53.80
71668;DHT22;59504;54.806;9.640;2023-08-06T14:29:45;20.40;53.50
71668;DHT22;59504;54.806;9.640;2023-08-06T14:32:06;20.50;53.90
71668;DHT22;59504;54.806;9.640;2023-08-06T14:34:30;20.50;53.30
71668;DHT22;59504;54.806;9.640;2023-08-06T14:36:50;20.60;52.60
71668;DHT22;59504;54.806;9.640;2023-08-06T14:39:11;20.40;53.10
71668;DHT22;59504;54.806;9.640;2023-08-06T14:41:31;20.60;53.60
71668;DHT22;59504;54.806;9.640;2023-08-06T14:43:52;20.50;53.50
71668;DHT22;59504;54.806;9.640;2023-08-06T14:45:53;20.50;53.60
71668;DHT22;59504;54.806;9.640;2023-08-06T14:47:55;20.50;52.90